createdAt,value
2019-05-28T00:00:02.485Z,1.30
2019-05-28T00:05:05.476Z,1.20
2019-05-28T00:10:11.716Z,1.07
2019-05-28T00:15:18.141Z,1.02
2019-05-28T00:20:24.348Z,1.50
2019-05-28T00:25:30.146Z,1.32
2019-05-28T00:30:36.112Z,1.07
2019-05-28T00:35:41.939Z,1.10
2019-05-28T00:40:47.775Z,1.37
2019-05-28T00:46:01.424Z,1.07
2019-05-28T00:51:07.441Z,1.22
2019-05-28T00:56:13.669Z,1.40
2019-05-28T01:01:20.965Z,1.37
2019-05-28T01:06:26.779Z,1.40
2019-05-28T01:11:33.120Z,1.15
2019-05-28T01:16:40.438Z,1.12
2019-05-28T01:21:46.246Z,1.00
2019-05-28T01:26:52.164Z,1.00
2019-05-28T01:31:58.136Z,1.20
2019-05-28T01:37:03.811Z,1.07
2019-05-28T01:42:09.754Z,1.30
2019-05-28T01:47:17.085Z,1.20
2019-05-28T01:52:22.866Z,1.42
2019-05-28T01:57:29.006Z,1.20
2019-05-28T02:02:36.839Z,1.02
2019-05-28T02:07:42.519Z,1.00
2019-05-28T02:12:48.621Z,1.10
2019-05-28T02:17:54.563Z,1.20
2019-05-28T02:23:00.567Z,1.30
2019-05-28T02:28:06.681Z,1.17
2019-05-28T02:33:12.575Z,1.17
2019-05-28T02:38:18.111Z,1.35
2019-05-28T02:43:25.784Z,1.10
2019-05-28T02:48:31.941Z,1.00
2019-05-28T02:53:38.006Z,1.35
2019-05-28T02:58:45.638Z,1.12
2019-05-28T03:03:52.941Z,1.80
2019-05-28T03:09:00.229Z,1.10
2019-05-28T03:14:06.025Z,1.25
2019-05-28T03:19:13.060Z,1.22
2019-05-28T03:24:20.435Z,1.32
2019-05-28T03:29:26.071Z,1.27
2019-05-28T03:34:31.913Z,1.10
2019-05-28T03:39:39.160Z,1.50
2019-05-28T03:44:47.016Z,1.30
2019-05-28T03:49:52.818Z,1.27
2019-05-28T03:54:58.816Z,1.15
2019-05-28T04:00:05.301Z,1.87
2019-05-28T04:05:11.055Z,1.15
2019-05-28T04:10:16.950Z,1.30
2019-05-28T04:15:22.851Z,1.00
2019-05-28T04:20:28.765Z,1.30
2019-05-28T04:25:34.387Z,1.47
2019-05-28T04:30:40.319Z,1.42
2019-05-28T04:35:46.090Z,1.35
2019-05-28T04:40:53.225Z,1.50
2019-05-28T04:45:58.890Z,1.40
2019-05-28T04:51:06.401Z,1.30
2019-05-28T04:56:12.120Z,1.42
2019-05-28T05:01:18.041Z,1.47
2019-05-28T05:06:23.709Z,1.50
2019-05-28T05:11:29.853Z,1.62
2019-05-28T05:16:35.758Z,1.60
2019-05-28T05:21:41.830Z,1.60
2019-05-28T05:26:47.677Z,1.77
2019-05-28T05:31:53.437Z,1.50
2019-05-28T05:36:59.668Z,1.62
2019-05-28T05:42:05.630Z,1.65
2019-05-28T05:47:11.727Z,1.75
2019-05-28T05:52:17.734Z,1.50
2019-05-28T05:57:23.726Z,1.57
2019-05-28T06:02:29.387Z,1.32
2019-05-28T06:07:35.623Z,1.60
2019-05-28T06:12:41.154Z,1.57
2019-05-28T06:17:47.184Z,1.47
2019-05-28T06:22:52.922Z,1.30
2019-05-28T06:27:59.744Z,1.40
2019-05-28T06:33:05.555Z,2.50
2019-05-28T06:38:11.200Z,1.52
2019-05-28T06:43:16.903Z,1.60
2019-05-28T06:48:22.604Z,1.72
2019-05-28T06:53:28.301Z,1.42
2019-05-28T06:58:39.173Z,1.40
2019-05-28T07:03:41.527Z,1.72
2019-05-28T07:08:47.492Z,2.65
2019-05-28T07:13:55.153Z,1.62
2019-05-28T07:19:14.850Z,1.70
2019-05-28T07:24:12.587Z,1.47
2019-05-28T07:29:19.994Z,1.90
2019-05-28T07:34:30.845Z,1.90
2019-05-28T07:39:33.140Z,1.85
2019-05-28T07:44:40.782Z,2.30
2019-05-28T07:49:46.490Z,2.30
2019-05-28T07:54:52.486Z,1.92
2019-05-28T07:59:59.166Z,1.85
2019-05-28T08:05:05.590Z,1.75
2019-05-28T08:10:11.616Z,1.80
2019-05-28T08:15:17.380Z,1.80
2019-05-28T08:20:23.214Z,1.77
2019-05-28T08:25:46.124Z,2.30
2019-05-28T08:30:36.784Z,2.20
2019-05-28T08:35:42.657Z,1.85
2019-05-28T08:40:48.430Z,2.60
2019-05-28T08:45:54.402Z,2.35
2019-05-28T08:51:00.270Z,2.10
2019-05-28T08:56:06.169Z,2.42
2019-05-28T09:01:11.985Z,1.90
2019-05-28T09:06:23.200Z,2.17
2019-05-28T09:11:26.009Z,2.10
2019-05-28T09:16:31.671Z,2.60
2019-05-28T09:21:37.398Z,2.60
2019-05-28T09:26:43.044Z,2.12
2019-05-28T09:31:48.940Z,2.05
2019-05-28T09:36:54.961Z,1.62
2019-05-28T09:42:00.976Z,1.80
2019-05-28T09:47:06.813Z,1.87
2019-05-28T09:52:12.761Z,1.65
2019-05-28T09:57:18.953Z,1.80
2019-05-28T10:02:24.829Z,1.80
2019-05-28T10:07:30.785Z,1.32
2019-05-28T10:12:36.870Z,1.85
2019-05-28T10:17:43.390Z,1.72
2019-05-28T10:22:48.893Z,1.62
2019-05-28T10:28:00.990Z,1.62
2019-05-28T10:33:02.049Z,1.05
2019-05-28T10:38:14.504Z,1.80
2019-05-28T10:43:15.106Z,1.50
2019-05-28T10:48:21.097Z,1.50
2019-05-28T10:53:27.518Z,1.50
2019-05-28T10:58:33.386Z,1.35
2019-05-28T11:03:39.247Z,1.57
2019-05-28T11:08:44.969Z,1.60
2019-05-28T11:13:53.553Z,1.50
2019-05-28T11:18:58.459Z,1.40
2019-05-28T11:24:05.336Z,1.65
2019-05-28T11:29:11.231Z,1.50
2019-05-28T11:34:18.015Z,1.40
2019-05-28T11:39:24.919Z,1.27
2019-05-28T11:44:30.996Z,1.42
2019-05-28T11:49:36.695Z,1.37
2019-05-28T11:54:42.668Z,1.27
2019-05-28T11:59:48.520Z,1.25
2019-05-28T12:04:55.907Z,1.07
2019-05-28T12:10:02.165Z,1.27
2019-05-28T12:15:09.803Z,1.05
2019-05-28T12:20:17.940Z,1.57
2019-05-28T12:25:25.084Z,1.20
2019-05-28T12:30:31.013Z,1.50
2019-05-28T12:35:36.848Z,1.15
2019-05-28T12:40:48.199Z,1.30
2019-05-28T12:45:51.949Z,1.77
2019-05-28T12:50:57.785Z,2.20
2019-05-28T12:56:03.626Z,1.60
2019-05-28T13:01:09.686Z,2.10
2019-05-28T13:06:15.378Z,1.40
2019-05-28T13:11:21.471Z,1.25
2019-05-28T13:16:27.574Z,1.40
2019-05-28T13:21:33.410Z,1.40
2019-05-28T13:26:39.373Z,1.20
2019-05-28T13:31:45.181Z,1.37
2019-05-28T13:36:51.130Z,1.10
2019-05-28T13:41:56.733Z,1.00
2019-05-28T13:47:02.262Z,1.10
2019-05-28T13:52:11.942Z,1.22
2019-05-28T13:57:17.011Z,1.10
2019-05-28T14:02:25.080Z,1.00
2019-05-28T14:07:31.109Z,1.50
2019-05-28T14:12:37.145Z,1.00
2019-05-28T14:17:43.145Z,1.12
2019-05-28T14:22:49.129Z,1.00
2019-05-28T14:27:54.912Z,0.90
2019-05-28T14:33:00.580Z,0.93
2019-05-28T14:38:06.527Z,1.02
2019-05-28T14:43:12.695Z,0.72
2019-05-28T14:48:18.236Z,0.70
2019-05-28T14:53:24.281Z,0.80
2019-05-28T14:58:30.065Z,0.75
2019-05-28T15:03:36.528Z,0.93
2019-05-28T15:08:42.726Z,0.70
2019-05-28T15:13:49.682Z,0.90
2019-05-28T15:18:56.913Z,0.72
2019-05-28T15:24:02.574Z,0.70
2019-05-28T15:29:09.942Z,0.82
2019-05-28T15:34:15.814Z,0.70
2019-05-28T15:39:38.456Z,0.70
2019-05-28T15:44:29.246Z,0.90
2019-05-28T15:49:36.703Z,0.80
2019-05-28T15:54:43.515Z,0.90
2019-05-28T15:59:49.437Z,0.90
2019-05-28T16:04:55.021Z,0.90
2019-05-28T16:10:01.119Z,1.30
2019-05-28T16:15:07.491Z,0.93
2019-05-28T16:20:14.759Z,1.00
2019-05-28T16:25:21.306Z,1.20
2019-05-28T16:30:27.276Z,1.20
2019-05-28T16:35:32.993Z,1.20
2019-05-28T16:40:41.956Z,1.10
2019-05-28T16:45:47.961Z,1.10
2019-05-28T16:50:54.088Z,1.12
2019-05-28T16:56:00.224Z,1.27
2019-05-28T17:01:21.949Z,1.15
2019-05-28T17:06:14.134Z,1.10
2019-05-28T17:11:19.838Z,1.35
2019-05-28T17:16:25.707Z,1.30
2019-05-28T17:21:31.549Z,1.27
2019-05-28T17:26:37.735Z,1.30
2019-05-28T17:31:43.913Z,1.20
2019-05-28T17:36:49.866Z,1.05
2019-05-28T17:41:56.545Z,1.30
2019-05-28T17:47:02.482Z,1.00
2019-05-28T17:52:08.544Z,1.10
2019-05-28T17:57:14.735Z,0.95
2019-05-28T18:02:20.775Z,1.50
2019-05-28T18:07:26.830Z,1.10
2019-05-28T18:12:32.766Z,0.85
2019-05-28T18:17:39.144Z,0.80
2019-05-28T18:22:45.670Z,0.88
2019-05-28T18:27:51.721Z,1.25
2019-05-28T18:32:58.521Z,0.98
2019-05-28T18:38:06.213Z,1.00
2019-05-28T18:43:17.161Z,0.78
2019-05-28T18:48:23.032Z,0.75
2019-05-28T18:53:29.878Z,0.78
2019-05-28T18:58:36.086Z,0.72
2019-05-28T19:03:41.918Z,0.90
2019-05-28T19:08:47.721Z,0.80
2019-05-28T19:13:53.889Z,0.95
2019-05-28T19:19:01.723Z,1.00
2019-05-28T19:24:07.637Z,1.27
2019-05-28T19:29:13.755Z,1.02
2019-05-28T19:34:19.712Z,0.90
2019-05-28T19:39:25.898Z,0.70
2019-05-28T19:44:31.944Z,0.95
2019-05-28T19:49:37.940Z,1.80
2019-05-28T19:54:44.112Z,1.10
2019-05-28T19:59:50.444Z,0.60
2019-05-28T20:04:56.422Z,0.75
2019-05-28T20:10:02.478Z,0.72
2019-05-28T20:15:09.150Z,0.70
2019-05-28T20:20:18.646Z,1.00
2019-05-28T20:25:25.289Z,0.90
2019-05-28T20:30:32.929Z,0.90
2019-05-28T20:35:39.268Z,0.90
2019-05-28T20:40:46.024Z,0.80
2019-05-28T20:45:51.912Z,0.80
2019-05-28T20:51:07.893Z,0.70
2019-05-28T20:56:05.755Z,0.60
2019-05-28T21:01:11.756Z,0.78
2019-05-28T21:06:17.655Z,0.70
2019-05-28T21:11:25.259Z,0.60
2019-05-28T21:16:32.531Z,0.60
2019-05-28T21:21:39.122Z,0.62
2019-05-28T21:26:46.551Z,0.60
2019-05-28T21:31:52.508Z,0.50
2019-05-28T21:36:59.201Z,0.80
2019-05-28T21:42:05.302Z,0.65
2019-05-28T21:47:11.197Z,0.80
2019-05-28T21:52:18.029Z,0.90
2019-05-28T21:57:24.077Z,0.97
2019-05-28T22:02:29.919Z,0.90
2019-05-28T22:07:36.016Z,0.70
2019-05-28T22:12:43.305Z,0.70
2019-05-28T22:17:49.315Z,1.00
2019-05-28T22:22:56.236Z,1.20
2019-05-28T22:28:02.847Z,0.98
2019-05-28T22:33:08.721Z,1.30
2019-05-28T22:38:14.661Z,0.93
2019-05-28T22:43:31.117Z,1.40
2019-05-28T22:48:28.438Z,1.25
2019-05-28T22:53:34.542Z,1.20
2019-05-28T22:58:40.446Z,1.33
2019-05-28T23:03:49.672Z,1.40
2019-05-28T23:08:55.481Z,1.40
2019-05-28T23:14:02.082Z,1.15
2019-05-28T23:19:08.747Z,1.37
2019-05-28T23:24:15.034Z,1.60
2019-05-28T23:29:20.823Z,1.37
2019-05-28T23:34:26.785Z,1.77
2019-05-28T23:39:32.543Z,1.45
2019-05-28T23:44:38.370Z,1.80
2019-05-28T23:49:44.087Z,1.50
2019-05-28T23:54:50.094Z,1.77
2019-05-28T23:59:55.963Z,1.73
